Latest Coastal Weather Observations for Flinders Island Airport

IDV60701

Issued at 6:42 am EST Saturday 27 May 2017 (issued every 10 minutes, with the page automatically refreshed every 10 minutes)

About coastal observations | Map of coastal stations | Coastal observations for VIC | Marine services | Other Formats
Station Details ID: 099005 Name: FLINDERS ISLAND AIRPORT Lat: -40.09 Lon: 148.00 Height: 9.0 m
Data from the previous 72 hours. | See also: Recent months at Flinders Island Airport
Date/Time
EST
Temp
°C
Wind Pressure Rain since
9am
mm
Weather Cloud Vis
km
Sea
Height
m
Swell
Dir  Spd
kts
Gust
kts
hPa Trend Height
m
Period
s
Dir
27/06:30am 13.0 NNE 9 13 1017.4 - 0.0 - Partly cloudy 10 - - - -
27/06:00am 12.7 NNE 12 17 1017.5 - 0.0 - Mostly clear 10 - - - -
27/05:30am 12.4 NNE 11 16 1017.5 - 0.0 - Partly cloudy 10 - - - -
27/05:00am 12.1 NE 2 6 1017.6 - 0.0 - Partly cloudy 10 - - - -
27/04:30am 7.8 CALM 0 0 1017.6 - 0.0 - Partly cloudy 10 - - - -
27/04:00am 7.7 NNW 3 6 1017.8 - 0.0 - Partly cloudy 10 - - - -
27/03:30am 7.3 NNE 7 9 1018.3 - 0.0 - Partly cloudy 10 - - - -
27/03:00am 6.9 NNE 6 7 1018.6 - 0.0 - Mostly clear 10 - - - -
27/02:30am 7.3 NE 5 6 1019.1 - 0.0 - Partly cloudy 10 - - - -
27/02:00am 6.3 ENE 8 10 1019.2 - 0.0 - Partly cloudy 10 - - - -
27/01:30am 6.1 ENE 6 7 1019.5 - 0.0 - Partly cloudy 10 - - - -
27/01:00am 6.1 NE 6 6 1019.6 - 0.0 - Partly cloudy 10 - - - -
27/12:30am 5.9 NE 5 7 1019.7 - 0.0 - - 10 - - - -
27/12:00am 6.0 ENE 8 9 1020.0 - 0.0 - Mostly clear 10 - - - -
 
Date/Time
EST
Temp
°C
Wind Pressure Rain since
9am
mm
Weather Cloud Vis
km
Sea
Height
m
Swell
Dir  Spd
kts
Gust
kts
hPa Trend Height
m
Period
s
Dir
26/11:30pm 6.6 ENE 8 9 1020.2 - 0.0 - Partly cloudy 10 - - - -
26/11:00pm 6.4 ENE 6 7 1020.4 - 0.0 - Partly cloudy 10 - - - -
26/10:30pm 7.3 NE 5 6 1020.4 - 0.0 - Partly cloudy 10 - - - -
26/10:00pm 10.0 NNE 6 7 1020.6 - 0.0 - Cloudy 10 - - - -
26/09:30pm 8.5 ENE 6 7 1020.6 - 0.0 - Cloudy 10 - - - -
26/09:00pm 8.0 ENE 5 7 1020.7 - 0.0 - Cloudy 10 - - - -
26/08:30pm 7.1 ENE 5 7 1020.7 - 0.0 - Partly cloudy 10 - - - -
26/08:00pm 6.6 ENE 6 7 1020.6 - 0.0 - Partly cloudy 10 - - - -
26/07:30pm 5.8 ENE 5 7 1020.4 - 0.0 - Partly cloudy 10 - - - -
26/07:00pm 6.6 NNE 3 4 1020.2 - 0.0 - - 10 - - - -
26/06:30pm 7.8 NNW 5 7 1020.1 - 0.0 - Partly cloudy 10 - - - -
26/06:00pm 10.4 WNW 8 10 1019.9 - 0.0 - Partly cloudy 10 - - - -
26/05:30pm 10.9 WSW 8 10 1019.7 - 0.0 - Partly cloudy 10 - - - -
26/05:00pm 11.9 WSW 10 12 1019.6 - 0.0 - Partly cloudy 10 - - - -
26/04:30pm 12.8 WSW 11 14 1019.5 - 0.0 - - 10 - - - -
26/04:00pm 13.6 WSW 11 15 1019.5 - 0.0 - Partly cloudy 10 - - - -
26/03:30pm 14.2 WSW 12 17 1019.5 - 0.0 - Partly cloudy 10 - - - -
26/03:00pm 14.0 WSW 14 18 1019.5 - 0.0 - Partly cloudy 10 - - - -
26/02:30pm 13.9 WSW 15 18 1019.3 - 0.0 - Partly cloudy 10 - - - -
26/02:00pm 14.9 WSW 16 20 1019.4 - 0.0 - Partly cloudy 10 - - - -
26/01:30pm 14.5 WSW 15 20 1019.5 - 0.0 - Partly cloudy 10 - - - -
26/01:00pm 14.0 WSW 16 20 1019.7 - 0.0 - Partly cloudy 10 - - - -
26/12:30pm 14.2 WSW 17 20 1019.8 - 0.0 - Partly cloudy 10 - - - -
26/12:00pm 14.7 WSW 17 20 1020.0 - 0.0 - Partly cloudy 10 - - - -
26/11:30am 14.7 WSW 18 22 1020.4 - 0.0 - Partly cloudy 10 - - - -
26/11:00am 14.7 WSW 18 22 1020.4 - 0.0 - Partly cloudy 10 - - - -
26/10:30am 14.3 WSW 18 25 1020.4 - 0.0 - Partly cloudy 10 - - - -
26/10:00am 14.0 WSW 19 23 1020.2 - 0.0 - Partly cloudy 10 - - - -
26/09:30am 13.8 WSW 21 26 1020.0 - 0.0 - Partly cloudy 10 - - - -
26/09:00am 13.6 WSW 21 25 1019.9 - 1.0 - Partly cloudy 10 - - - -
26/08:30am 13.4 WSW 19 22 1019.6 - 1.0 - Partly cloudy 10 - - - -
26/08:00am 12.8 WSW 19 23 1019.4 - 1.0 - Partly cloudy 10 - - - -
26/07:30am 12.6 WSW 20 25 1019.1 - 1.0 - Partly cloudy 10 - - - -
26/07:00am 12.8 W 19 23 1018.5 - 1.0 - Partly cloudy 10 - - - -
26/06:30am 12.5 W 19 23 1018.2 - 1.0 - Partly cloudy 10 - - - -
26/06:00am 12.8 WSW 19 24 1017.6 - 1.0 - Mostly clear 10 - - - -
26/05:30am 13.0 WSW 19 22 1017.2 - 1.0 - Partly cloudy 10 - - - -
26/05:00am 12.9 WSW 20 24 1016.9 - 1.0 - Partly cloudy 10 - - - -
26/04:30am 13.0 W 19 24 1016.4 - 1.0 - Partly cloudy 10 - - - -
26/04:00am 13.1 W 20 25 1016.2 - 1.0 - - 10 - - - -
26/03:30am 13.4 W 19 25 1016.0 - 1.0 - - 10 - - - -
26/03:00am 13.7 W 19 23 1015.8 - 1.0 - Partly cloudy 10 - - - -
26/02:30am 13.8 W 19 23 1015.7 - 1.0 - Partly cloudy 10 - - - -
26/02:00am 13.9 WSW 22 27 1015.5 - 1.0 - Partly cloudy 10 - - - -
26/01:30am 14.1 W 18 23 1015.5 - 1.0 - Partly cloudy 10 - - - -
26/01:00am 14.0 W 21 25 1015.2 - 1.0 - - 10 - - - -
26/12:30am 14.1 W 21 26 1015.3 - 1.0 - Partly cloudy 10 - - - -
26/12:00am 14.1 W 20 26 1015.3 - 1.0 - Partly cloudy 10 - - - -
 
Date/Time
EST
Temp
°C
Wind Pressure Rain since
9am
mm
Weather Cloud Vis
km
Sea
Height
m
Swell
Dir  Spd
kts
Gust
kts
hPa Trend Height
m
Period
s
Dir
25/11:30pm 14.3 W 19 23 1014.9 - 1.0 - Partly cloudy 10 - - - -
25/11:00pm 14.3 W 17 24 1014.6 - 1.0 - Partly cloudy 10 - - - -
25/10:30pm 14.8 WNW 19 25 1014.5 - 1.0 - Partly cloudy 10 - - - -
25/10:24pm 14.8 WNW 19 25 1014.5 - 1.0 - Partly cloudy 10 - - - -
25/10:07pm 14.9 WNW 19 29 1014.3 - 0.8 - Partly cloudy 4 - - - -
25/10:03pm 14.9 WNW 20 29 1014.3 - 0.8 - Partly cloudy 5 - - - -
25/10:00pm 15.0 WNW 20 29 1014.3 - 0.6 - Partly cloudy 6 - - - -
25/09:42pm 15.1 WNW 20 31 1014.3 - 0.6 - Partly cloudy 10 - - - -
25/09:30pm 14.9 NW 20 27 1014.3 - 0.6 - Partly cloudy 10 - - - -
25/09:29pm 14.9 NW 20 27 1014.3 - 0.6 - Partly cloudy 10 - - - -
25/09:22pm 14.8 NW 17 27 1014.3 - 0.6 - Partly cloudy 8 - - - -
25/09:08pm 15.1 WNW 18 24 1014.5 - 0.4 - Partly cloudy 5 - - - -
25/09:00pm 15.5 WNW 20 26 1014.5 - 0.4 - Cloudy 10 - - - -
25/08:30pm 15.6 NW 20 27 1014.6 - 0.4 - Partly cloudy 10 - - - -
25/08:05pm 15.5 NW 18 28 1014.4 - 0.4 - Partly cloudy 10 - - - -
25/08:00pm 15.5 NW 19 28 1014.5 - 0.4 - Partly cloudy 10 - - - -
25/07:30pm 15.4 NW 17 26 1014.9 - 0.4 - Partly cloudy 10 - - - -
25/07:03pm 15.5 NW 17 29 1014.8 - 0.4 - Partly cloudy 10 - - - -
25/07:00pm 15.3 NW 16 22 1014.8 - 0.4 - Partly cloudy 10 - - - -
25/06:30pm 15.1 WNW 16 21 1014.8 - 0.4 - Partly cloudy 10 - - - -
25/06:16pm 15.2 WNW 18 28 1014.7 - 0.4 - Partly cloudy 10 - - - -
25/06:00pm 14.9 WNW 17 22 1014.7 - 0.4 - Cloudy 10 - - - -
25/05:30pm 14.6 WNW 16 20 1014.8 - 0.4 - Partly cloudy 10 - - - -
25/05:00pm 14.5 WNW 18 27 1014.7 - 0.4 - Partly cloudy 10 - - - -
25/04:30pm 15.0 WNW 17 22 1014.8 - 0.4 - Partly cloudy 10 - - - -
25/04:00pm 14.8 WNW 15 22 1014.8 - 0.4 - Partly cloudy 10 - - - -
25/03:30pm 14.7 WNW 18 24 1015.0 - 0.4 - Partly cloudy 10 - - - -
25/03:00pm 14.5 WNW 17 22 1015.0 - 0.4 - Cloudy 10 - - - -
25/02:30pm 14.7 WNW 16 22 1015.2 - 0.4 - Partly cloudy 10 - - - -
25/02:00pm 14.7 WNW 18 23 1015.4 - 0.4 - Partly cloudy 10 - - - -
25/01:51pm 14.6 WNW 17 22 1015.4 - 0.4 - Partly cloudy 10 - - - -
25/01:49pm 14.5 WNW 17 22 1015.4 - 0.4 - Partly cloudy 10 - - - -
25/01:41pm 13.8 WNW 20 31 1015.5 - 0.4 - Partly cloudy 5 - - - -
25/01:30pm 13.8 WNW 19 29 1015.7 - 0.4 - Partly cloudy 10 - - - -
25/01:21pm 13.6 WNW 19 29 1015.7 - 0.4 - Partly cloudy 7 - - - -
25/01:18pm 13.9 WNW 19 26 1015.7 - 0.4 - Partly cloudy 10 - - - -
25/01:10pm 14.9 WNW 17 23 1015.7 - 0.4 - Partly cloudy 10 - - - -
25/01:00pm 14.6 W 16 20 1015.7 - 0.4 - Partly cloudy 10 - - - -
25/12:49pm 14.0 WNW 15 22 1015.9 - 0.4 - Partly cloudy 7 - - - -
25/12:37pm 14.1 WNW 14 19 1016.0 - 0.4 - Partly cloudy 4 - - - -
25/12:31pm 14.1 WNW 15 20 1016.1 - 0.4 - Partly cloudy 5 - - - -
25/12:30pm 14.1 WNW 15 20 1016.1 - 0.4 - Partly cloudy 7 - - - -
25/12:00pm 14.7 WNW 15 19 1016.4 - 0.4 - Cloudy 10 - - - -
25/11:45am 14.1 WNW 15 20 1016.7 - 0.4 - Partly cloudy 5 - - - -
25/11:30am 14.7 WNW 16 21 1016.8 - 0.4 - Partly cloudy 10 - - - -
25/11:00am 15.9 WNW 14 17 1017.2 - 0.4 - Partly cloudy 10 - - - -
25/10:30am 15.0 W 10 13 1017.3 - 0.4 - Partly cloudy 10 - - - -
25/10:21am 14.2 W 12 15 1017.3 - 0.4 - Partly cloudy 10 - - - -
25/10:11am 14.0 WSW 16 21 1017.3 - 0.4 - Partly cloudy 5 - - - -
25/10:00am 14.6 W 14 17 1017.2 - 0.0 - Partly cloudy 10 - - - -
25/09:30am 14.8 WNW 11 15 1017.2 - 0.0 - Partly cloudy 10 - - - -
25/09:00am 14.3 W 14 18 1017.2 - 0.4 - Cloudy 10 - - - -
25/08:30am 14.4 W 11 15 1017.2 - 0.4 - Partly cloudy 10 - - - -
25/08:00am 14.0 W 14 16 1017.2 - 0.4 - Partly cloudy 10 - - - -
25/07:30am 13.5 W 10 14 1016.9 - 0.4 - Partly cloudy 10 - - - -
25/07:06am 13.2 W 13 17 1016.7 - 0.4 - Partly cloudy 10 - - - -
25/07:00am 13.4 W 15 21 1016.6 - 0.4 - Partly cloudy 8 - - - -
25/06:53am 13.3 W 16 21 1016.5 - 0.4 - Partly cloudy 5 - - - -
25/06:30am 13.4 WNW 13 17 1016.4 - 0.4 - Partly cloudy 10 - - - -
25/06:00am 13.3 W 11 15 1016.2 - 0.4 - Cloudy 10 - - - -
25/05:30am 13.2 WSW 15 19 1016.1 - 0.4 - Partly cloudy 10 - - - -
25/05:00am 12.7 W 14 18 1016.0 - 0.4 - Partly cloudy 9 - - - -
25/04:30am 12.8 WSW 18 23 1015.9 - 0.4 - Partly cloudy 6 - - - -
25/04:00am 13.3 WSW 17 21 1015.6 - 0.4 - Partly cloudy 10 - - - -
25/03:30am 13.3 WSW 17 20 1015.6 - 0.4 - Partly cloudy 10 - - - -
25/03:00am 13.5 W 20 24 1015.5 - 0.4 - Mostly cloudy 10 - - - -
25/02:30am 13.8 WSW 18 22 1015.5 - 0.4 - Partly cloudy 10 - - - -
25/02:00am 13.8 WSW 18 22 1015.5 - 0.4 - Partly cloudy 10 - - - -
25/01:30am 13.8 WSW 17 21 1015.3 - 0.4 - Partly cloudy 10 - - - -
25/01:00am 13.6 WSW 18 21 1015.2 - 0.4 - Partly cloudy 10 - - - -
25/12:30am 13.4 WSW 17 20 1015.5 - 0.4 - Partly cloudy 10 - - - -
25/12:00am 13.4 WSW 18 22 1015.4 - 0.4 - Mostly clear 10 - - - -
 
Date/Time
EST
Temp
°C
Wind Pressure Rain since
9am
mm
Weather Cloud Vis
km
Sea
Height
m
Swell
Dir  Spd
kts
Gust
kts
hPa Trend Height
m
Period
s
Dir
24/11:30pm 13.5 WSW 18 22 1015.5 - 0.4 - Partly cloudy 10 - - - -
24/11:00pm 13.3 WSW 19 23 1015.4 - 0.4 - Partly cloudy 10 - - - -
24/10:30pm 13.8 WSW 20 25 1015.5 - 0.4 - Partly cloudy 10 - - - -
24/10:00pm 13.5 WSW 19 24 1015.7 - 0.4 - Partly cloudy 10 - - - -
24/09:30pm 13.4 WSW 23 28 1015.4 - 0.4 - - 10 - - - -
24/09:00pm 13.7 WSW 24 30 1015.2 - 0.4 - Mostly clear 10 - - - -
24/08:30pm 13.7 WSW 22 29 1015.0 - 0.4 - Partly cloudy 10 - - - -
24/08:00pm 13.8 WSW 26 32 1014.6 - 0.4 - Partly cloudy 10 - - - -
24/07:30pm 14.1 WSW 24 30 1014.3 - 0.4 - Partly cloudy 10 - - - -
24/07:00pm 13.8 WSW 27 31 1013.9 - 0.4 - - 10 - - - -
24/06:30pm 13.9 WSW 26 32 1013.4 - 0.4 - Partly cloudy 10 - - - -
24/06:00pm 13.7 WSW 26 32 1013.1 - 0.4 - Mostly clear 10 - - - -
24/05:30pm 13.7 WSW 28 33 1012.4 - 0.4 - Partly cloudy 10 - - - -
24/05:00pm 13.7 WSW 27 31 1012.2 - 0.4 - Partly cloudy 10 - - - -
24/04:30pm 13.9 W 23 28 1011.8 - 0.4 - Partly cloudy 10 - - - -
24/04:00pm 14.0 W 27 33 1011.2 - 0.4 - Partly cloudy 10 - - - -
24/03:30pm 14.3 WSW 26 30 1010.7 - 0.4 - Partly cloudy 10 - - - -
24/03:00pm 14.6 WSW 28 32 1010.3 - 0.4 - - 10 - - - -
24/02:30pm 14.2 WSW 26 33 1010.0 - 0.4 - Partly cloudy 10 - - - -
24/02:00pm 14.6 WSW 26 31 1009.7 - 0.4 - Partly cloudy 10 - - - -
24/01:30pm 14.6 W 25 30 1009.6 - 0.4 - Partly cloudy 10 - - - -
24/01:00pm 14.6 WSW 24 28 1009.6 - 0.4 - Partly cloudy 10 - - - -
24/12:30pm 14.3 W 20 27 1009.7 - 0.4 - Partly cloudy 10 - - - -
24/12:19pm 13.8 W 20 26 1009.8 - 0.4 - Partly cloudy 10 - - - -
24/12:00pm 12.5 WSW 24 34 1010.1 - 0.4 Rain Cloudy 4 - - - -
24/11:58am 13.4 WSW 23 34 1010.0 - 0.2 - Partly cloudy 9 - - - -
24/11:48am 13.9 WSW 23 28 1009.9 - 0.2 - Partly cloudy 10 - - - -
24/11:30am 13.3 WSW 27 31 1009.9 - 0.2 - Partly cloudy 5 - - - -
24/11:21am 14.3 W 21 31 1010.0 - 0.2 - Partly cloudy 10 - - - -
24/11:00am 13.7 WSW 27 33 1010.1 - 0.2 - Partly cloudy 10 - - - -
24/10:41am 15.1 W 19 29 1009.8 - 0.2 - Partly cloudy 10 - - - -
24/10:30am 14.2 W 24 32 1009.7 - 0.2 - Partly cloudy 10 - - - -
24/10:20am 14.4 WNW 20 33 1009.6 - 0.2 - Partly cloudy 10 - - - -
24/10:00am 13.9 WNW 17 22 1009.6 - 0.2 - Partly cloudy 10 - - - -
24/09:44am 14.4 WNW 18 31 1009.6 - 0.2 - Partly cloudy 10 - - - -
24/09:30am 13.3 WNW 18 23 1009.6 - 0.0 - Partly cloudy 8 - - - -
24/09:00am 13.9 WNW 15 19 1009.7 - 2.2 Recent precip. Partly cloudy 10 - - - -
24/08:44am 13.4 WNW 14 19 1009.8 - 2.2 - Partly cloudy 10 - - - -
24/08:30am 12.7 WNW 17 31 1009.7 - 2.2 - Partly cloudy 5 - - - -
24/08:25am 13.4 WNW 15 31 1009.8 - 1.6 - Partly cloudy 10 - - - -
24/08:00am 13.3 WNW 13 17 1009.5 - 1.4 - Partly cloudy 10 - - - -
24/07:30am 13.7 WNW 13 16 1009.5 - 1.4 - Partly cloudy 10 - - - -
24/07:00am 12.6 NNW 7 8 1009.5 - 1.4 - Partly cloudy 10 - - - -

Other Formats:

Comma delimited format used in spreadsheet applications
http://www.bom.gov.au/fwo/IDV60701/IDV60701.94980.axf

JavaScript Object Notation format (JSON) in row-major order
http://www.bom.gov.au/fwo/IDV60701/IDV60701.94980.json